createdAt,value
2019-02-05T00:00:25.219Z,78.7
2019-02-05T00:01:37.297Z,78.9
2019-02-05T00:02:49.424Z,79
2019-02-05T00:06:26.012Z,80.9
2019-02-05T00:08:50.497Z,80.8
2019-02-05T00:10:02.589Z,80.5
2019-02-05T00:11:14.884Z,80.3
2019-02-05T00:12:27.060Z,80.6
2019-02-05T00:13:39.277Z,80.7
2019-02-05T00:14:51.449Z,80.5
2019-02-05T00:17:15.847Z,80.9
2019-02-05T00:18:27.960Z,80.6
2019-02-05T00:20:52.370Z,80.6
2019-02-05T00:22:04.571Z,80
2019-02-05T00:23:16.817Z,80.9
2019-02-05T00:24:28.949Z,80.1
2019-02-05T00:25:41.181Z,79.5
2019-02-05T00:26:53.514Z,81.2
2019-02-05T00:29:17.865Z,80.9
2019-02-05T00:30:29.947Z,81
2019-02-05T00:32:56.564Z,80.7
2019-02-05T00:35:18.699Z,81.8
2019-02-05T00:36:30.965Z,82.8
2019-02-05T00:37:43.177Z,83.9
2019-02-05T00:38:55.410Z,85.2
2019-02-05T00:41:19.734Z,86.5
2019-02-05T00:42:31.880Z,87
2019-02-05T00:43:44.162Z,87.1
2019-02-05T00:44:56.337Z,87.6
2019-02-05T00:46:12.622Z,87.7
2019-02-05T00:47:20.754Z,87.7
2019-02-05T00:49:45.129Z,87.9
2019-02-05T00:50:57.410Z,88
2019-02-05T00:53:21.657Z,87.4
2019-02-05T00:54:33.975Z,87.6
2019-02-05T00:55:46.187Z,87.5
2019-02-05T00:56:58.348Z,87.5
2019-02-05T00:59:22.630Z,87.2
2019-02-05T01:00:34.845Z,86.4
2019-02-05T01:01:47.004Z,86.3
2019-02-05T01:05:23.585Z,86.4
2019-02-05T01:06:35.887Z,86.9
2019-02-05T01:07:48.138Z,86.7
2019-02-05T01:09:00.178Z,86.7
2019-02-05T01:10:12.673Z,86.2
2019-02-05T01:11:24.654Z,86.4
2019-02-05T01:12:36.770Z,86.7
2019-02-05T01:13:48.960Z,86.8
2019-02-05T01:15:01.255Z,86.5
2019-02-05T01:18:37.743Z,86.8
2019-02-05T01:21:02.216Z,86.5
2019-02-05T01:22:14.327Z,86.6
2019-02-05T01:23:26.557Z,86.3
2019-02-05T01:24:38.923Z,86.5
2019-02-05T01:25:51.100Z,86.3
2019-02-05T01:27:03.194Z,86.2
2019-02-05T01:29:27.567Z,86.2
2019-02-05T01:30:39.771Z,86.5
2019-02-05T01:31:52.074Z,85.8
2019-02-05T01:33:04.169Z,86.2
2019-02-05T01:34:16.323Z,86.2
2019-02-05T01:35:28.485Z,86.1
2019-02-05T01:36:40.787Z,85.8
2019-02-05T01:37:52.955Z,85.5
2019-02-05T01:39:05.218Z,85.7
2019-02-05T01:41:29.540Z,85.8
2019-02-05T01:42:41.659Z,85.9
2019-02-05T01:43:53.939Z,85.8
2019-02-05T01:45:06.132Z,85.8
2019-02-05T01:47:30.441Z,85.7
2019-02-05T01:48:42.716Z,86.1
2019-02-05T01:49:54.832Z,86.8
2019-02-05T01:51:07.055Z,86.7
2019-02-05T01:53:31.590Z,87.1
2019-02-05T01:54:43.706Z,87.6
2019-02-05T01:55:55.862Z,88.1
2019-02-05T01:57:08.085Z,88.5
2019-02-05T01:58:20.289Z,88.1
2019-02-05T01:59:32.594Z,88.3
2019-02-05T02:01:56.797Z,88.9
2019-02-05T02:03:09.070Z,88.6
2019-02-05T02:06:45.573Z,89.5
2019-02-05T02:09:10.037Z,89.8
2019-02-05T02:10:22.167Z,89.7
2019-02-05T02:11:34.371Z,89.7
2019-02-05T02:13:58.786Z,89.4
2019-02-05T02:15:11.045Z,89.8
2019-02-05T02:17:35.506Z,90
2019-02-05T02:18:47.556Z,90.3
2019-02-05T02:19:59.868Z,90.7
2019-02-05T02:21:11.938Z,90.6
2019-02-05T02:23:36.328Z,90.4
2019-02-05T02:24:48.698Z,90.6
2019-02-05T02:26:00.709Z,90.4
2019-02-05T02:27:13.095Z,91
2019-02-05T02:29:37.468Z,90.8
2019-02-05T02:30:49.504Z,90.9
2019-02-05T02:32:01.807Z,91.1
2019-02-05T02:33:13.968Z,91.1
2019-02-05T02:34:26.097Z,91.2
2019-02-05T02:35:38.350Z,91.3
2019-02-05T02:36:50.571Z,91.4
2019-02-05T02:38:02.670Z,92.2
2019-02-05T02:39:14.943Z,92.3
2019-02-05T02:42:53.972Z,92.8
2019-02-05T02:44:03.759Z,92.5
2019-02-05T02:45:15.933Z,92.5
2019-02-05T02:46:28.055Z,92.8
2019-02-05T02:47:40.355Z,92.7
2019-02-05T02:48:52.449Z,92.8
2019-02-05T02:50:04.789Z,93
2019-02-05T02:54:53.482Z,93.2
2019-02-05T02:56:05.680Z,93.5
2019-02-05T02:57:17.831Z,93.7
2019-02-05T02:59:42.286Z,94.3
2019-02-05T03:00:54.409Z,94.2
2019-02-05T03:02:06.584Z,94.2
2019-02-05T03:03:18.776Z,94.2
2019-02-05T03:06:55.438Z,93.7
2019-02-05T03:08:07.721Z,93.7
2019-02-05T03:09:19.810Z,94
2019-02-05T03:10:31.959Z,94.3
2019-02-05T03:11:44.148Z,94.3
2019-02-05T03:12:56.648Z,94.5
2019-02-05T03:14:08.623Z,94.5
2019-02-05T03:15:21.039Z,94.5
2019-02-05T03:17:45.120Z,94.2
2019-02-05T03:18:57.431Z,94.4
2019-02-05T03:20:09.634Z,94.8
2019-02-05T03:21:21.816Z,94.9
2019-02-05T03:23:46.244Z,95.3
2019-02-05T03:24:58.433Z,95.2
2019-02-05T03:26:10.581Z,95.2
2019-02-05T03:27:22.768Z,95
2019-02-05T03:29:47.251Z,95.3
2019-02-05T03:30:59.296Z,95.4
2019-02-05T03:32:11.564Z,95.5
2019-02-05T03:33:23.766Z,95.6
2019-02-05T03:34:36.025Z,95.6
2019-02-05T03:35:48.074Z,95.7
2019-02-05T03:38:12.539Z,95.6
2019-02-05T03:39:24.681Z,95.9
2019-02-05T03:41:49.214Z,95.8
2019-02-05T03:43:01.318Z,95.9
2019-02-05T03:44:13.447Z,96
2019-02-05T03:45:25.741Z,96.1
2019-02-05T03:47:50.017Z,95.9
2019-02-05T03:50:14.413Z,96
2019-02-05T03:51:26.693Z,96
2019-02-05T03:53:51.005Z,96.1
2019-02-05T03:55:03.285Z,95.9
2019-02-05T03:56:15.979Z,95.9
2019-02-05T03:57:27.614Z,96
2019-02-05T03:59:52.087Z,96.1
2019-02-05T04:01:04.285Z,96.2
2019-02-05T04:02:16.475Z,96.3
2019-02-05T04:03:28.629Z,96.3
2019-02-05T04:05:53.040Z,96.2
2019-02-05T04:07:05.259Z,96.3
2019-02-05T04:08:17.400Z,96.3
2019-02-05T04:09:29.549Z,96.3
2019-02-05T04:11:53.940Z,96.7
2019-02-05T04:14:18.348Z,96.8
2019-02-05T04:15:30.593Z,96.8
2019-02-05T04:19:07.182Z,96.9
2019-02-05T04:21:31.600Z,96.7
2019-02-05T04:22:43.759Z,96.8
2019-02-05T04:23:55.953Z,96.9
2019-02-05T04:25:08.189Z,96.9
2019-02-05T04:26:20.373Z,96.9
2019-02-05T04:27:32.662Z,97
2019-02-05T04:29:56.853Z,97.1
2019-02-05T04:31:09.125Z,97.1
2019-02-05T04:32:21.381Z,97.2
2019-02-05T04:33:33.440Z,97.3
2019-02-05T04:34:45.704Z,97.3
2019-02-05T04:35:57.845Z,97.3
2019-02-05T04:38:22.223Z,97.4
2019-02-05T04:39:34.513Z,97.4
2019-02-05T04:41:58.958Z,97.5
2019-02-05T04:43:10.986Z,97.5
2019-02-05T04:44:23.194Z,97.3
2019-02-05T04:45:35.465Z,97.3
2019-02-05T04:46:47.678Z,97.1
2019-02-05T04:47:59.836Z,97.1
2019-02-05T04:49:12.044Z,97.2
2019-02-05T04:50:24.245Z,97.2
2019-02-05T04:51:36.440Z,97.3
2019-02-05T04:54:00.847Z,97.3
2019-02-05T04:55:12.947Z,97.3
2019-02-05T04:56:25.132Z,97.3
2019-02-05T04:57:37.334Z,97.3
2019-02-05T04:58:49.582Z,97.3
2019-02-05T05:00:01.709Z,97.3
2019-02-05T05:02:26.181Z,97.4
2019-02-05T05:03:38.359Z,97.3
2019-02-05T05:06:02.691Z,97.5
2019-02-05T05:07:14.977Z,97.5
2019-02-05T05:09:39.353Z,97.4
2019-02-05T05:10:51.534Z,97.4
2019-02-05T05:12:03.646Z,97.5
2019-02-05T05:13:15.840Z,97.4
2019-02-05T05:14:28.055Z,97.4
2019-02-05T05:15:40.360Z,97.5
2019-02-05T05:18:04.617Z,97.4
2019-02-05T05:19:16.892Z,97.4
2019-02-05T05:20:29.008Z,97.4
2019-02-05T05:21:41.243Z,97.5
2019-02-05T05:22:53.476Z,97.5
2019-02-05T05:24:05.654Z,97.6
2019-02-05T05:25:17.837Z,97.6
2019-02-05T05:26:29.987Z,97.6
2019-02-05T05:27:42.256Z,97.6
2019-02-05T05:31:18.928Z,97.5
2019-02-05T05:32:30.951Z,97.4
2019-02-05T05:33:43.209Z,97.3
2019-02-05T05:36:07.615Z,97.3
2019-02-05T05:38:31.926Z,97.5
2019-02-05T05:42:08.494Z,97.3
2019-02-05T05:43:20.785Z,97.4
2019-02-05T05:45:45.173Z,97.3
2019-02-05T05:46:57.281Z,97.4
2019-02-05T05:48:09.489Z,97.4
2019-02-05T05:49:21.671Z,97.5
2019-02-05T05:50:33.969Z,97.5
2019-02-05T05:51:46.126Z,97.5
2019-02-05T05:54:10.507Z,97.5
2019-02-05T05:55:22.639Z,97.6
2019-02-05T05:56:34.909Z,97.6
2019-02-05T05:57:47.043Z,97.6
2019-02-05T05:58:59.214Z,97.6
2019-02-05T06:00:11.406Z,97.5
2019-02-05T06:01:23.677Z,97.6
2019-02-05T06:02:35.878Z,97.7
2019-02-05T06:03:47.988Z,97.7
2019-02-05T06:06:12.394Z,97.8
2019-02-05T06:07:24.608Z,97.8
2019-02-05T06:08:36.923Z,97.8
2019-02-05T06:09:49.005Z,97.8
2019-02-05T06:11:01.515Z,97.8
2019-02-05T06:12:13.409Z,97.8
2019-02-05T06:13:25.626Z,97.8
2019-02-05T06:14:37.846Z,97.7
2019-02-05T06:18:14.469Z,97.8
2019-02-05T06:19:26.515Z,97.8
2019-02-05T06:20:38.715Z,97.8
2019-02-05T06:21:51.034Z,97.8
2019-02-05T06:24:15.375Z,97.8
2019-02-05T06:25:27.508Z,97.8
2019-02-05T06:26:39.761Z,97.8
2019-02-05T06:30:16.394Z,97.8
2019-02-05T06:31:28.490Z,97.8
2019-02-05T06:32:40.659Z,97.8
2019-02-05T06:33:52.854Z,97.8
2019-02-05T06:35:05.139Z,98
2019-02-05T06:36:17.450Z,97.8
2019-02-05T06:37:29.472Z,97.8
2019-02-05T06:38:41.649Z,97.8
2019-02-05T06:39:54.001Z,97.8
2019-02-05T06:42:18.367Z,97.8
2019-02-05T06:43:30.404Z,97.8
2019-02-05T06:44:42.663Z,97.8
2019-02-05T06:45:54.783Z,97.8
2019-02-05T06:47:07.095Z,97.8
2019-02-05T06:48:19.257Z,97.8
2019-02-05T06:49:31.405Z,97.8
2019-02-05T06:50:44.450Z,97.8
2019-02-05T06:51:55.757Z,97.8
2019-02-05T06:54:20.255Z,97.8
2019-02-05T06:55:32.393Z,97.8
2019-02-05T06:56:44.650Z,97.8
2019-02-05T06:57:56.817Z,97.8
2019-02-05T06:59:08.918Z,97.7
2019-02-05T07:00:21.121Z,97.7
2019-02-05T07:01:33.425Z,97.7
2019-02-05T07:02:45.500Z,97.7
2019-02-05T07:03:57.768Z,97.5
2019-02-05T07:06:22.166Z,97.5
2019-02-05T07:07:34.430Z,97.4
2019-02-05T07:08:46.471Z,97.5
2019-02-05T07:09:58.750Z,97.4
2019-02-05T07:11:10.861Z,97.4
2019-02-05T07:12:23.053Z,97.4
2019-02-05T07:13:35.338Z,97.5
2019-02-05T07:14:47.546Z,97.4
2019-02-05T07:15:59.645Z,97.4
2019-02-05T07:18:24.037Z,97.5
2019-02-05T07:19:36.306Z,97.7
2019-02-05T07:22:01.785Z,97.7
2019-02-05T07:23:12.890Z,97.5
2019-02-05T07:24:25.023Z,97.5
2019-02-05T07:26:49.461Z,97.5
2019-02-05T07:28:01.665Z,97.5
2019-02-05T07:30:26.050Z,97.7
2019-02-05T07:31:38.163Z,97.8
2019-02-05T07:32:50.551Z,97.7
2019-02-05T07:34:02.665Z,97.7
2019-02-05T07:35:14.752Z,97.5
2019-02-05T07:36:26.970Z,97.7
2019-02-05T07:37:39.127Z,97.5
2019-02-05T07:38:51.402Z,97.7
2019-02-05T07:40:03.522Z,97.5
2019-02-05T07:42:27.913Z,97.5
2019-02-05T07:43:40.193Z,97.5
2019-02-05T07:44:52.302Z,97.7
2019-02-05T07:46:04.562Z,97.7
2019-02-05T07:48:28.902Z,97.7
2019-02-05T07:50:53.302Z,97.3
2019-02-05T07:52:05.549Z,97.3
2019-02-05T07:54:29.987Z,97.5
2019-02-05T07:55:42.109Z,97.3
2019-02-05T07:58:06.537Z,97.1
2019-02-05T07:59:18.697Z,97.1
2019-02-05T08:00:30.820Z,96.9
2019-02-05T08:01:43.040Z,97
2019-02-05T08:02:55.207Z,97
2019-02-05T08:04:07.406Z,97
2019-02-05T08:06:31.787Z,97.1
2019-02-05T08:07:44.010Z,97
2019-02-05T08:08:56.235Z,97.2
2019-02-05T08:10:08.370Z,97.1
2019-02-05T08:11:20.576Z,97.2
2019-02-05T08:12:32.779Z,97.3
2019-02-05T08:13:45.058Z,97.3
2019-02-05T08:14:57.154Z,97.2
2019-02-05T08:19:46.008Z,97.4
2019-02-05T08:20:58.186Z,97.3
2019-02-05T08:22:10.306Z,97.4
2019-02-05T08:23:22.660Z,97.4
2019-02-05T08:24:34.699Z,97.5
2019-02-05T08:25:46.895Z,97.6
2019-02-05T08:26:59.216Z,97.6
2019-02-05T08:28:11.373Z,97.6
2019-02-05T08:31:47.936Z,97.5
2019-02-05T08:33:00.131Z,97.5
2019-02-05T08:34:12.377Z,97.7
2019-02-05T08:35:24.603Z,97.8
2019-02-05T08:36:36.645Z,97.8
2019-02-05T08:39:01.117Z,97.8
2019-02-05T08:40:13.402Z,97.8
2019-02-05T08:42:37.615Z,97.8
2019-02-05T08:43:49.874Z,97.8
2019-02-05T08:46:14.188Z,98.1
2019-02-05T08:47:26.462Z,98.1
2019-02-05T08:48:38.598Z,98.2
2019-02-05T08:51:03.037Z,98.1
2019-02-05T08:55:51.765Z,98.2
2019-02-05T08:57:03.950Z,98.3
2019-02-05T08:58:16.364Z,98.3
2019-02-05T09:00:40.593Z,98.2
2019-02-05T09:01:52.793Z,98.1
2019-02-05T09:03:04.989Z,98.1
2019-02-05T09:06:41.750Z,98.1
2019-02-05T09:07:53.761Z,98.1
2019-02-05T09:09:05.948Z,98.1
2019-02-05T09:10:18.064Z,98.1
2019-02-05T09:12:42.575Z,98.2
2019-02-05T09:13:54.730Z,98.1
2019-02-05T09:15:06.919Z,98.1
2019-02-05T09:18:43.427Z,98.2
2019-02-05T09:19:55.709Z,98.3
2019-02-05T09:21:07.891Z,98.3
2019-02-05T09:22:20.009Z,98.4
2019-02-05T09:23:32.281Z,98.4
2019-02-05T09:24:44.395Z,98.4
2019-02-05T09:27:08.863Z,98.4
2019-02-05T09:28:21.072Z,98.5
2019-02-05T09:30:45.477Z,98.5
2019-02-05T09:31:57.658Z,98.4
2019-02-05T09:33:09.838Z,98.5
2019-02-05T09:34:21.950Z,98.6
2019-02-05T09:35:34.240Z,98.6
2019-02-05T09:36:46.496Z,98.6
2019-02-05T09:37:58.742Z,98.7
2019-02-05T09:39:10.752Z,98.7
2019-02-05T09:40:22.933Z,98.7
2019-02-05T09:42:47.346Z,98.7
2019-02-05T09:43:59.584Z,98.7
2019-02-05T09:45:11.834Z,98.7
2019-02-05T09:46:23.889Z,98.7
2019-02-05T09:47:36.162Z,98.7
2019-02-05T09:48:48.465Z,98.7
2019-02-05T09:50:00.473Z,98.7
2019-02-05T09:51:12.668Z,98.7
2019-02-05T09:52:24.859Z,98.7
2019-02-05T09:54:49.322Z,98.7
2019-02-05T09:56:01.552Z,98.7
2019-02-05T09:57:13.718Z,98.7
2019-02-05T09:58:25.908Z,98.8
2019-02-05T09:59:38.020Z,98.8
2019-02-05T10:00:50.748Z,98.8
2019-02-05T10:03:14.609Z,98.8
2019-02-05T10:04:26.810Z,98.8
2019-02-05T10:08:03.491Z,98.8
2019-02-05T10:09:15.582Z,98.8
2019-02-05T10:10:27.834Z,98.8
2019-02-05T10:11:39.982Z,98.8
2019-02-05T10:12:52.166Z,98.9
2019-02-05T10:14:04.418Z,98.9
2019-02-05T10:15:16.566Z,98.9
2019-02-05T10:16:28.744Z,98.9
2019-02-05T10:18:53.193Z,98.9
2019-02-05T10:20:05.347Z,98.9
2019-02-05T10:22:29.825Z,98.9
2019-02-05T10:23:44.156Z,98.9
2019-02-05T10:24:54.108Z,98.9
2019-02-05T10:26:06.382Z,98.9
2019-02-05T10:27:18.512Z,98.9
2019-02-05T10:28:30.693Z,99
2019-02-05T10:30:55.143Z,98.9
2019-02-05T10:32:07.352Z,98.9
2019-02-05T10:34:31.756Z,98.9
2019-02-05T10:36:56.070Z,99
2019-02-05T10:38:08.223Z,99
2019-02-05T10:39:20.494Z,99
2019-02-05T10:40:32.735Z,99
2019-02-05T10:42:57.127Z,98.9
2019-02-05T10:44:09.284Z,98.9
2019-02-05T10:45:21.416Z,98.9
2019-02-05T10:46:33.599Z,98.9
2019-02-05T10:47:45.856Z,98.9
2019-02-05T10:48:57.982Z,98.9
2019-02-05T10:50:10.244Z,98.8
2019-02-05T10:51:22.373Z,98.8
2019-02-05T10:52:34.568Z,98.8
2019-02-05T10:54:59.166Z,98.7
2019-02-05T10:56:11.136Z,98.6
2019-02-05T10:57:23.342Z,98.6
2019-02-05T10:58:35.598Z,98.7
2019-02-05T10:59:47.714Z,98.7
2019-02-05T11:00:59.919Z,98.7
2019-02-05T11:02:12.128Z,98.7
2019-02-05T11:03:24.390Z,98.7
2019-02-05T11:04:36.613Z,98.7
2019-02-05T11:07:00.886Z,98.6
2019-02-05T11:08:13.967Z,98.7
2019-02-05T11:09:25.278Z,98.6
2019-02-05T11:10:37.550Z,98.7
2019-02-05T11:11:49.743Z,98.7
2019-02-05T11:13:01.886Z,98.7
2019-02-05T11:14:14.049Z,98.7
2019-02-05T11:15:26.378Z,98.6
2019-02-05T11:16:38.542Z,98.6
2019-02-05T11:20:15.025Z,98.3
2019-02-05T11:21:27.230Z,98.4
2019-02-05T11:22:39.416Z,98.3
2019-02-05T11:23:51.666Z,98.3
2019-02-05T11:25:03.887Z,98.3
2019-02-05T11:26:15.981Z,98.2
2019-02-05T11:27:28.181Z,98.3
2019-02-05T11:31:04.761Z,98.2
2019-02-05T11:32:17.023Z,98.1
2019-02-05T11:33:29.184Z,98.1
2019-02-05T11:34:42.089Z,98.1
2019-02-05T11:35:53.612Z,98.2
2019-02-05T11:37:05.725Z,98.1
2019-02-05T11:38:17.924Z,98
2019-02-05T11:39:30.192Z,98
2019-02-05T11:40:42.403Z,98.1
2019-02-05T11:43:06.877Z,98.1
2019-02-05T11:44:19.013Z,98.1
2019-02-05T11:45:31.293Z,98.1
2019-02-05T11:46:43.358Z,97.9
2019-02-05T11:47:55.478Z,97.9
2019-02-05T11:49:07.840Z,97.8
2019-02-05T11:50:19.866Z,97.9
2019-02-05T11:51:32.131Z,97.9
2019-02-05T11:55:08.729Z,97.7
2019-02-05T11:56:20.909Z,97.8
2019-02-05T11:58:45.309Z,97.7
2019-02-05T11:59:57.423Z,97.7
2019-02-05T12:01:09.703Z,97.6
2019-02-05T12:02:22.006Z,97.5
2019-02-05T12:03:34.071Z,97.5
2019-02-05T12:04:46.273Z,97.5
2019-02-05T12:07:10.650Z,97.2
2019-02-05T12:08:22.848Z,97.2
2019-02-05T12:09:34.977Z,97.1
2019-02-05T12:10:47.263Z,97.1
2019-02-05T12:11:59.355Z,97.1
2019-02-05T12:13:11.666Z,97.2
2019-02-05T12:14:23.761Z,97.3
2019-02-05T12:15:35.941Z,97.4
2019-02-05T12:16:48.933Z,97.2
2019-02-05T12:19:12.589Z,97.1
2019-02-05T12:20:24.736Z,97.1
2019-02-05T12:22:49.178Z,97.1
2019-02-05T12:24:02.585Z,97.1
2019-02-05T12:25:13.579Z,97.1
2019-02-05T12:26:25.752Z,97
2019-02-05T12:27:37.961Z,97
2019-02-05T12:28:50.148Z,97.1
2019-02-05T12:31:14.475Z,97
2019-02-05T12:32:26.646Z,96.9
2019-02-05T12:33:38.862Z,96.6
2019-02-05T12:34:51.223Z,96.7
2019-02-05T12:36:04.632Z,96.8
2019-02-05T12:37:15.493Z,97
2019-02-05T12:38:27.621Z,96.8
2019-02-05T12:39:39.812Z,96.9
2019-02-05T12:40:52.177Z,96.8
2019-02-05T12:43:16.403Z,96.4
2019-02-05T12:44:28.589Z,96.4
2019-02-05T12:45:40.863Z,96.5
2019-02-05T12:46:53.107Z,96.7
2019-02-05T12:48:05.249Z,96.9
2019-02-05T12:49:17.436Z,96.9
2019-02-05T12:50:29.553Z,96.9
2019-02-05T12:51:41.954Z,96.9
2019-02-05T12:52:53.950Z,96.8
2019-02-05T12:55:18.333Z,96.7
2019-02-05T12:56:30.593Z,96.5
2019-02-05T12:57:42.925Z,96.4
2019-02-05T12:58:54.918Z,96.4
2019-02-05T13:00:07.406Z,96.3
2019-02-05T13:01:19.371Z,96.2
2019-02-05T13:02:31.498Z,96.3
2019-02-05T13:03:43.766Z,96.2
2019-02-05T13:04:55.957Z,96.3
2019-02-05T13:07:20.377Z,96.4
2019-02-05T13:08:32.589Z,96.5
2019-02-05T13:09:44.668Z,96.5
2019-02-05T13:10:56.948Z,96.5
2019-02-05T13:12:09.160Z,96.5
2019-02-05T13:13:21.325Z,96.5
2019-02-05T13:14:33.461Z,96.5
2019-02-05T13:15:45.706Z,96.6
2019-02-05T13:16:57.828Z,96.6
2019-02-05T13:19:22.209Z,96.3
2019-02-05T13:20:34.467Z,96.2
2019-02-05T13:21:46.678Z,96.3
2019-02-05T13:22:58.877Z,96.3
2019-02-05T13:24:11.099Z,96.1
2019-02-05T13:25:23.351Z,96.1
2019-02-05T13:26:35.446Z,96.1
2019-02-05T13:27:47.567Z,95.9
2019-02-05T13:29:00.313Z,95.9
2019-02-05T13:31:24.167Z,96.2
2019-02-05T13:32:36.362Z,96.2
2019-02-05T13:33:48.533Z,96.2
2019-02-05T13:35:00.761Z,96.2
2019-02-05T13:36:13.113Z,95.8
2019-02-05T13:37:25.248Z,95.5
2019-02-05T13:38:37.391Z,95.7
2019-02-05T13:39:49.503Z,95.7
2019-02-05T13:41:01.706Z,95.9
2019-02-05T13:43:26.352Z,96
2019-02-05T13:44:38.297Z,95.5
2019-02-05T13:45:50.510Z,95.7
2019-02-05T13:47:02.812Z,95.7
2019-02-05T13:48:14.882Z,95.9
2019-02-05T13:49:27.050Z,95.8
2019-02-05T13:50:39.349Z,95.4
2019-02-05T13:51:51.496Z,95.5
2019-02-05T13:55:28.095Z,95.5
2019-02-05T13:56:40.304Z,95.1
2019-02-05T13:57:52.497Z,95.3
2019-02-05T13:59:08.055Z,95.2
2019-02-05T14:00:17.858Z,95.1
2019-02-05T14:01:29.006Z,95.1
2019-02-05T14:02:41.301Z,95.1
2019-02-05T14:03:53.472Z,95.2
2019-02-05T14:05:05.664Z,95.2
2019-02-05T14:07:30.007Z,94.8
2019-02-05T14:08:42.261Z,94.7
2019-02-05T14:09:54.372Z,94.6
2019-02-05T14:11:06.632Z,94.6
2019-02-05T14:12:18.971Z,94.4
2019-02-05T14:13:30.954Z,94.5
2019-02-05T14:14:43.226Z,94.6
2019-02-05T14:15:55.355Z,94.6
2019-02-05T14:17:07.620Z,94.5
2019-02-05T14:19:32.005Z,94.7
2019-02-05T14:20:44.131Z,94.5
2019-02-05T14:21:56.344Z,94.5
2019-02-05T14:23:08.552Z,94.2
2019-02-05T14:24:20.849Z,94.1
2019-02-05T14:25:32.901Z,94.1
2019-02-05T14:26:45.192Z,94.1
2019-02-05T14:27:57.536Z,94.2
2019-02-05T14:29:13.494Z,94.1
2019-02-05T14:31:33.972Z,93.9
2019-02-05T14:32:46.078Z,93.9
2019-02-05T14:33:58.272Z,93.8
2019-02-05T14:35:10.491Z,94
2019-02-05T14:36:22.746Z,93.7
2019-02-05T14:37:34.855Z,93.6
2019-02-05T14:38:47.058Z,93.8
2019-02-05T14:39:59.309Z,93.8
2019-02-05T14:41:11.504Z,93.4
2019-02-05T14:43:36.270Z,93.3
2019-02-05T14:44:48.158Z,93.5
2019-02-05T14:46:00.304Z,93.6
2019-02-05T14:47:12.519Z,93.3
2019-02-05T14:48:24.914Z,93.4
2019-02-05T14:49:36.829Z,93.4
2019-02-05T14:50:49.092Z,93.5
2019-02-05T14:52:01.401Z,93.5
2019-02-05T14:55:37.964Z,93.5
2019-02-05T14:56:49.986Z,93.3
2019-02-05T14:58:02.271Z,93.4
2019-02-05T14:59:14.447Z,93.2
2019-02-05T15:00:26.577Z,93.4
2019-02-05T15:01:38.781Z,93.3
2019-02-05T15:02:51.110Z,93.2
2019-02-05T15:04:03.245Z,93.1
2019-02-05T15:05:15.385Z,92.8
2019-02-05T15:07:39.761Z,92.3
2019-02-05T15:08:51.976Z,92.8
2019-02-05T15:10:04.209Z,92.6
2019-02-05T15:11:16.448Z,93.1
2019-02-05T15:12:28.595Z,92.4
2019-02-05T15:13:40.722Z,92.8
2019-02-05T15:14:52.920Z,92.8
2019-02-05T15:16:05.119Z,93
2019-02-05T15:17:17.499Z,93.3
2019-02-05T15:19:42.328Z,93.2
2019-02-05T15:20:53.891Z,93.1
2019-02-05T15:22:09.311Z,93.3
2019-02-05T15:23:19.690Z,92.8
2019-02-05T15:24:30.498Z,92.8
2019-02-05T15:25:42.761Z,92.2
2019-02-05T15:28:07.058Z,92
2019-02-05T15:31:43.846Z,91.8
2019-02-05T15:32:55.859Z,92.1
2019-02-05T15:35:20.237Z,92
2019-02-05T15:37:44.660Z,92.1
2019-02-05T15:38:56.860Z,91.6
2019-02-05T15:40:09.036Z,91.7
2019-02-05T15:41:21.291Z,91.9
2019-02-05T15:44:58.697Z,92.3
2019-02-05T15:46:09.988Z,92.3
2019-02-05T15:47:22.350Z,92.2
2019-02-05T15:48:34.412Z,92.4
2019-02-05T15:49:46.666Z,92.5
2019-02-05T15:50:58.784Z,92.2
2019-02-05T15:52:12.297Z,92.1
2019-02-05T15:53:23.242Z,92.1
2019-02-05T15:56:59.832Z,92.1
2019-02-05T15:59:24.146Z,91.8
2019-02-05T16:00:36.409Z,92.1
2019-02-05T16:01:48.615Z,92.1
2019-02-05T16:03:02.859Z,92.2
2019-02-05T16:04:12.917Z,92.8
2019-02-05T16:05:25.194Z,92.8
2019-02-05T16:07:49.517Z,92.8
2019-02-05T16:09:01.706Z,92.5
2019-02-05T16:10:13.953Z,92.5
2019-02-05T16:11:26.098Z,92.5
2019-02-05T16:12:38.373Z,92.7
2019-02-05T16:13:50.483Z,92.8
2019-02-05T16:15:02.688Z,92.3
2019-02-05T16:16:14.959Z,92.7
2019-02-05T16:17:27.117Z,92.4
2019-02-05T16:19:51.476Z,92.4
2019-02-05T16:21:03.665Z,92
2019-02-05T16:22:15.861Z,92.1
2019-02-05T16:23:28.054Z,92.2
2019-02-05T16:24:40.325Z,92.2
2019-02-05T16:25:52.436Z,92.2
2019-02-05T16:27:04.773Z,92.1
2019-02-05T16:28:16.834Z,92.1
2019-02-05T16:29:29.032Z,92
2019-02-05T16:31:53.415Z,92.2
2019-02-05T16:33:05.649Z,92
2019-02-05T16:34:17.884Z,91.7
2019-02-05T16:35:30.095Z,92.1
2019-02-05T16:36:42.270Z,91.7
2019-02-05T16:37:54.430Z,92.1
2019-02-05T16:39:06.670Z,92
2019-02-05T16:40:23.688Z,92.1
2019-02-05T16:41:33.818Z,91.7
2019-02-05T16:43:55.442Z,91.8
2019-02-05T16:45:07.562Z,91.9
2019-02-05T16:46:19.793Z,91.8
2019-02-05T16:47:32.048Z,91.8
2019-02-05T16:48:44.244Z,91.7
2019-02-05T16:49:56.414Z,91.7
2019-02-05T16:51:08.621Z,91.7
2019-02-05T16:52:20.730Z,91.5
2019-02-05T16:53:33.018Z,91.7
2019-02-05T16:55:57.325Z,92.3
2019-02-05T16:57:09.594Z,91.8
2019-02-05T16:58:21.716Z,91.9
2019-02-05T16:59:34.051Z,91.4
2019-02-05T17:02:02.570Z,91.8
2019-02-05T17:03:10.579Z,91.8
2019-02-05T17:04:22.728Z,92.2
2019-02-05T17:05:34.892Z,92
2019-02-05T17:07:59.400Z,91.9
2019-02-05T17:09:11.470Z,92
2019-02-05T17:10:23.739Z,91.9
2019-02-05T17:11:35.881Z,91.8
2019-02-05T17:14:00.246Z,92.5
2019-02-05T17:15:12.521Z,92.5
2019-02-05T17:16:24.746Z,91.9
2019-02-05T17:17:36.877Z,92.1
2019-02-05T17:20:01.368Z,92
2019-02-05T17:21:13.433Z,92.4
2019-02-05T17:22:25.622Z,92.3
2019-02-05T17:23:37.884Z,92.5
2019-02-05T17:24:50.080Z,92.6
2019-02-05T17:26:02.267Z,92.7
2019-02-05T17:27:14.404Z,92.8
2019-02-05T17:28:26.608Z,93
2019-02-05T17:29:38.885Z,93
2019-02-05T17:32:03.261Z,93.2
2019-02-05T17:33:15.507Z,93.2
2019-02-05T17:34:27.581Z,93.3
2019-02-05T17:35:39.767Z,93.1
2019-02-05T17:36:52.188Z,93.5
2019-02-05T17:38:04.161Z,93.3
2019-02-05T17:39:16.499Z,93.7
2019-02-05T17:40:28.607Z,93.8
2019-02-05T17:41:40.875Z,93.9
2019-02-05T17:44:05.214Z,94.1
2019-02-05T17:45:17.415Z,94.2
2019-02-05T17:46:29.601Z,93.9
2019-02-05T17:47:41.741Z,93.8
2019-02-05T17:48:53.915Z,93.7
2019-02-05T17:50:06.142Z,94.1
2019-02-05T17:51:18.440Z,93.8
2019-02-05T17:52:30.587Z,93.5
2019-02-05T17:53:42.706Z,93.7
2019-02-05T17:56:07.099Z,93.8
2019-02-05T17:57:19.311Z,94.1
2019-02-05T17:58:31.500Z,94
2019-02-05T17:59:43.699Z,94.1
2019-02-05T18:00:56.052Z,94.2
2019-02-05T18:02:08.074Z,94.1
2019-02-05T18:03:20.437Z,94.1
2019-02-05T18:04:32.531Z,94.3
2019-02-05T18:05:44.658Z,94.5
2019-02-05T18:08:09.317Z,94.2
2019-02-05T18:09:21.244Z,94.2
2019-02-05T18:11:45.635Z,94
2019-02-05T18:14:10.118Z,94.1
2019-02-05T18:15:22.313Z,93.9
2019-02-05T18:16:34.521Z,93.9
2019-02-05T18:17:46.617Z,93.9
2019-02-05T18:20:11.052Z,93.8
2019-02-05T18:21:23.198Z,94
2019-02-05T18:22:36.784Z,93.8
2019-02-05T18:23:47.689Z,93.8
2019-02-05T18:24:59.791Z,93.8
2019-02-05T18:26:12.001Z,93.3
2019-02-05T18:27:24.263Z,93.6
2019-02-05T18:28:36.376Z,93.8
2019-02-05T18:29:48.688Z,93.9
2019-02-05T18:32:13.027Z,94.1
2019-02-05T18:33:25.169Z,93.9
2019-02-05T18:35:49.663Z,93.7
2019-02-05T18:37:01.836Z,93.5
2019-02-05T18:38:14.017Z,93.6
2019-02-05T18:39:27.259Z,93.8
2019-02-05T18:40:38.341Z,93.7
2019-02-05T18:41:50.606Z,93.5
2019-02-05T18:44:15.081Z,93.5
2019-02-05T18:45:27.199Z,93.6
2019-02-05T18:46:39.374Z,93.6
2019-02-05T18:47:51.524Z,93.7
2019-02-05T18:49:03.704Z,93.5
2019-02-05T18:50:15.958Z,93.3
2019-02-05T18:51:28.091Z,93.3
2019-02-05T18:52:40.371Z,93
2019-02-05T18:53:52.515Z,92.9
2019-02-05T18:56:16.959Z,93
2019-02-05T18:57:29.110Z,93.2
2019-02-05T18:58:41.297Z,93.2
2019-02-05T18:59:53.566Z,92.9
2019-02-05T19:01:05.773Z,93.1
2019-02-05T19:02:17.866Z,92.9
2019-02-05T19:03:30.171Z,93.1
2019-02-05T19:04:42.242Z,93.2
2019-02-05T19:05:54.449Z,93
2019-02-05T19:09:31.040Z,92.7
2019-02-05T19:10:43.225Z,92.8
2019-02-05T19:11:55.444Z,93
2019-02-05T19:13:07.622Z,92.9
2019-02-05T19:14:19.829Z,92.5
2019-02-05T19:15:32.006Z,92.4
2019-02-05T19:16:44.289Z,92.8
2019-02-05T19:17:56.433Z,92.6
2019-02-05T19:20:20.796Z,92.7
2019-02-05T19:21:32.988Z,92.7
2019-02-05T19:22:45.193Z,92.4
2019-02-05T19:23:57.386Z,92.2
2019-02-05T19:25:09.573Z,92.1
2019-02-05T19:26:23.159Z,92.4
2019-02-05T19:27:34.055Z,92.2
2019-02-05T19:28:46.239Z,91.9
2019-02-05T19:29:58.444Z,92.3
2019-02-05T19:32:22.952Z,92.1
2019-02-05T19:33:35.037Z,92.1
2019-02-05T19:35:59.430Z,92
2019-02-05T19:37:11.603Z,92
2019-02-05T19:38:23.925Z,91.9
2019-02-05T19:40:48.124Z,92
2019-02-05T19:42:00.382Z,92.2
2019-02-05T19:44:24.703Z,92
2019-02-05T19:45:37.036Z,91.7
2019-02-05T19:46:49.630Z,91.7
2019-02-05T19:48:01.420Z,92.1